BSL weather

EuroAirport Basel-Mulhouse-Freiburg Airport
Bâle/Mulhouse, Alsace, France

Public forecast

Using degrees Celsius for public forecast. Weather courtesy of forecast.io.

METAR (pilot weather report)

Retrieved 2019/03/22 05:30 UTC (18 minutes ago):

LFSB 220530Z 00000KT CAVOK M00/M02 Q1030 NOSIG

TAF (pilot weather forecast)

Forecast is more than 12 hours old.

Retrieved 2019/03/21 00:26 UTC (1 day ago):

TAF LFSB 212300Z 2200/2224 VRB03KT CAVOK PROB30 TEMPO 2202/2207 4000 MIFG